Time;durP1;ratioP1;P1;durP2;ratioP2;P2;SDS_P1;SDS_P2;PMS_P1;PMS_P2;Temp;Humidity;BMP_temperature;BMP_pressure;BME280_temperature;BME280_humidity;BME280_pressure;Samples;Min_cycle;Max_cycle;Signal;HPM_P1;HPM_P2
2023/09/24 00:01:22;;;;;;;;;;;11.50;99.90;;;;;;5008062;28;20232;-79
2023/09/24 00:03:49;;;;;;;;;;;11.50;99.90;;;;;;5037511;27;19965;-78
2023/09/24 00:06:14;;;;;;;;;;;11.50;99.90;;;;;;5007797;28;19931;-79
2023/09/24 00:08:40;;;;;;;;;;;11.60;99.90;;;;;;5026448;28;20019;-79
2023/09/24 00:11:06;;;;;;;;;;;11.60;99.90;;;;;;5022141;28;19924;-83
2023/09/24 00:13:34;;;;;;;;;;;11.50;99.90;;;;;;5002865;28;20718;-82
2023/09/24 00:16:04;;;;;;;;;;;11.60;99.90;;;;;;5027902;27;19963;-82
2023/09/24 00:18:30;;;;;;;;;;;11.60;99.90;;;;;;5018983;28;19979;-82
2023/09/24 00:20:55;;;;;;;;;;;11.60;99.90;;;;;;5023964;28;19929;-83
2023/09/24 00:23:21;;;;;;;;;;;11.70;99.90;;;;;;5008188;28;20018;-83
2023/09/24 00:25:49;;;;;;;;;;;11.70;99.90;;;;;;5008136;28;19969;-82
2023/09/24 00:28:15;;;;;;;;;;;11.70;99.90;;;;;;4998844;28;20034;-83
2023/09/24 00:30:42;;;;;;;;;;;11.70;99.90;;;;;;5020454;28;20406;-83
2023/09/24 00:33:08;;;;;;;;;;;11.60;99.90;;;;;;5039176;27;19956;-82
2023/09/24 00:35:34;;;;;;;;;;;11.60;99.90;;;;;;5019695;28;19928;-82
2023/09/24 00:38:00;;;;;;;;;;;11.60;99.90;;;;;;4999951;28;19928;-82
2023/09/24 00:40:25;;;;;;;;;;;11.60;99.90;;;;;;5015767;28;20452;-81
2023/09/24 00:42:53;;;;;;;;;;;11.60;99.90;;;;;;4995870;28;19929;-82
2023/09/24 00:45:28;;;;;;;;;;;11.50;99.90;;;;;;5009767;28;19927;-82
2023/09/24 00:47:57;;;;;;;;;;;11.60;99.90;;;;;;4994007;28;20005;-82
2023/09/24 00:50:32;;;;;;;;;;;11.50;99.90;;;;;;4993056;28;20419;-82
2023/09/24 00:52:59;;;;;;;;;;;11.50;99.90;;;;;;5003409;28;19960;-82
2023/09/24 00:55:26;;;;;;;;;;;11.40;99.90;;;;;;4999075;28;19921;-82
2023/09/24 00:57:51;;;;;;;;;;;11.40;99.90;;;;;;5003286;28;20408;-82
2023/09/24 01:00:18;;;;;;;;;;;11.40;99.90;;;;;;5032799;28;19976;-82
2023/09/24 01:02:47;;;;;;;;;;;11.40;99.90;;;;;;5018026;28;20315;-82
2023/09/24 01:05:14;;;;;;;;;;;11.30;99.90;;;;;;4995387;28;20425;-83
2023/09/24 01:07:42;;;;;;;;;;;11.30;99.90;;;;;;4998201;28;19925;-82
2023/09/24 01:10:11;;;;;;;;;;;11.30;99.90;;;;;;5010702;28;20549;-82
2023/09/24 01:12:39;;;;;;;;;;;11.30;99.90;;;;;;4992372;28;20566;-83
2023/09/24 01:15:08;;;;;;;;;;;11.30;99.90;;;;;;4992318;28;19921;-82
2023/09/24 01:17:35;;;;;;;;;;;11.30;99.90;;;;;;5003263;28;19929;-82
2023/09/24 01:20:01;;;;;;;;;;;11.30;99.90;;;;;;4995679;28;19921;-82
2023/09/24 01:22:29;;;;;;;;;;;11.30;99.90;;;;;;5001249;28;20382;-83
2023/09/24 01:24:55;;;;;;;;;;;11.30;99.90;;;;;;4995757;28;20382;-83
2023/09/24 01:27:22;;;;;;;;;;;11.30;99.90;;;;;;5020369;27;20012;-83
2023/09/24 01:29:53;;;;;;;;;;;11.30;99.90;;;;;;4992818;27;19989;-83
2023/09/24 01:32:18;;;;;;;;;;;11.30;99.90;;;;;;5033017;28;19935;-83
2023/09/24 01:34:45;;;;;;;;;;;11.30;99.90;;;;;;5015166;27;19929;-84
2023/09/24 01:37:11;;;;;;;;;;;11.30;99.90;;;;;;4990595;28;20467;-83
2023/09/24 01:39:37;;;;;;;;;;;11.20;99.90;;;;;;5005836;28;19921;-84
2023/09/24 01:42:03;;;;;;;;;;;11.20;99.90;;;;;;5011848;28;19928;-83
2023/09/24 01:44:29;;;;;;;;;;;11.20;99.90;;;;;;5017402;28;19924;-84
2023/09/24 01:46:55;;;;;;;;;;;11.20;99.90;;;;;;5007095;28;19928;-83
2023/09/24 01:49:21;;;;;;;;;;;11.30;99.90;;;;;;5015918;28;19925;-83
2023/09/24 01:51:47;;;;;;;;;;;11.30;99.90;;;;;;5014449;28;20148;-84
2023/09/24 01:54:13;;;;;;;;;;;11.20;99.90;;;;;;5017349;28;20387;-84
2023/09/24 01:56:39;;;;;;;;;;;11.20;99.90;;;;;;5006458;28;19938;-84
2023/09/24 01:59:05;;;;;;;;;;;11.20;99.90;;;;;;5006074;28;20635;-83
2023/09/24 02:01:31;;;;;;;;;;;11.20;99.90;;;;;;5031043;27;19924;-84
2023/09/24 02:03:59;;;;;;;;;;;11.20;99.90;;;;;;5029976;28;20383;-83
2023/09/24 02:06:25;;;;;;;;;;;11.20;99.90;;;;;;5003614;28;20391;-83
2023/09/24 02:08:51;;;;;;;;;;;11.20;99.90;;;;;;5010964;28;20355;-83
2023/09/24 02:11:18;;;;;;;;;;;11.30;99.90;;;;;;5006400;27;20343;-84
2023/09/24 02:13:43;;;;;;;;;;;11.20;99.90;;;;;;5006795;28;19953;-84
2023/09/24 02:16:09;;;;;;;;;;;11.30;99.90;;;;;;5018641;28;21224;-84
2023/09/24 02:18:36;;;;;;;;;;;11.30;99.90;;;;;;5006003;28;19924;-84
2023/09/24 02:21:01;;;;;;;;;;;11.30;99.90;;;;;;5017229;28;20453;-83
2023/09/24 02:23:27;;;;;;;;;;;11.20;99.90;;;;;;5007218;28;19921;-83
2023/09/24 02:25:53;;;;;;;;;;;11.20;99.90;;;;;;5009491;27;19981;-82
2023/09/24 02:28:19;;;;;;;;;;;11.20;99.90;;;;;;5010261;28;19925;-82
2023/09/24 02:30:45;;;;;;;;;;;11.20;99.90;;;;;;5018696;28;19927;-83
2023/09/24 02:33:11;;;;;;;;;;;11.20;99.90;;;;;;5003176;28;19929;-83
2023/09/24 02:35:37;;;;;;;;;;;11.10;99.90;;;;;;4999614;28;20290;-82
2023/09/24 02:38:04;;;;;;;;;;;11.20;99.90;;;;;;5013682;28;19921;-82
2023/09/24 02:40:30;;;;;;;;;;;11.20;99.90;;;;;;5041322;27;19919;-82
2023/09/24 02:43:00;;;;;;;;;;;11.20;99.90;;;;;;5040588;28;20289;-83
2023/09/24 02:45:30;;;;;;;;;;;11.10;99.90;;;;;;4994978;27;19974;-84
2023/09/24 02:47:56;;;;;;;;;;;11.10;99.90;;;;;;5012504;28;19928;-83
2023/09/24 02:50:23;;;;;;;;;;;11.10;99.90;;;;;;4997129;28;19921;-83
2023/09/24 02:52:50;;;;;;;;;;;11.20;99.90;;;;;;5009443;28;19920;-83
2023/09/24 02:55:15;;;;;;;;;;;11.10;99.90;;;;;;5005492;28;20015;-83
2023/09/24 02:57:42;;;;;;;;;;;11.10;99.90;;;;;;5011914;28;19932;-83
2023/09/24 03:00:12;;;;;;;;;;;11.10;99.90;;;;;;5015429;28;19967;-83
2023/09/24 03:02:38;;;;;;;;;;;11.00;99.90;;;;;;5008716;28;19928;-83
2023/09/24 03:05:12;;;;;;;;;;;11.00;99.90;;;;;;5002327;28;19985;-84
2023/09/24 03:07:41;;;;;;;;;;;11.00;99.90;;;;;;5017212;28;20403;-84
2023/09/24 03:10:09;;;;;;;;;;;11.00;99.90;;;;;;5016253;28;19929;-84
2023/09/24 03:12:37;;;;;;;;;;;11.00;99.90;;;;;;5010023;28;19972;-78
2023/09/24 03:15:05;;;;;;;;;;;11.00;99.90;;;;;;4996975;28;19964;-78
2023/09/24 03:17:32;;;;;;;;;;;11.00;99.90;;;;;;5007587;28;19924;-77
2023/09/24 03:19:58;;;;;;;;;;;10.90;99.90;;;;;;5014010;28;19968;-78
2023/09/24 03:22:24;;;;;;;;;;;10.90;99.90;;;;;;4995826;27;19967;-78
2023/09/24 03:24:50;;;;;;;;;;;10.90;99.90;;;;;;4990424;28;19944;-78
2023/09/24 03:27:16;;;;;;;;;;;10.90;99.90;;;;;;5016160;28;19924;-78
2023/09/24 03:29:43;;;;;;;;;;;10.90;99.90;;;;;;5013847;28;19963;-78
2023/09/24 03:32:09;;;;;;;;;;;10.90;99.90;;;;;;5012063;28;19972;-79
2023/09/24 03:34:35;;;;;;;;;;;10.90;99.90;;;;;;5015469;28;20433;-78
2023/09/24 03:37:06;;;;;;;;;;;10.90;99.90;;;;;;5008029;28;20003;-78
2023/09/24 03:39:32;;;;;;;;;;;10.90;99.90;;;;;;5015948;28;19927;-78
2023/09/24 03:41:57;;;;;;;;;;;10.90;99.90;;;;;;5000582;28;19921;-78
2023/09/24 03:44:23;;;;;;;;;;;10.80;99.90;;;;;;5028303;28;19921;-78
2023/09/24 03:46:48;;;;;;;;;;;10.90;99.90;;;;;;5025225;27;19921;-78
2023/09/24 03:49:14;;;;;;;;;;;10.80;99.90;;;;;;5005627;28;19925;-78
2023/09/24 03:51:40;;;;;;;;;;;10.80;99.90;;;;;;5029451;28;19920;-78
2023/09/24 03:54:06;;;;;;;;;;;10.80;99.90;;;;;;5027766;28;19956;-78
2023/09/24 03:56:31;;;;;;;;;;;10.70;99.90;;;;;;5007923;27;19998;-78
2023/09/24 03:58:57;;;;;;;;;;;10.70;99.90;;;;;;5013697;28;19932;-78
2023/09/24 04:01:23;;;;;;;;;;;10.70;99.90;;;;;;5047490;27;19927;-76
2023/09/24 04:03:55;;;;;;;;;;;10.70;99.90;;;;;;5008391;28;20379;-77
2023/09/24 04:06:22;;;;;;;;;;;10.70;99.90;;;;;;5004652;27;20146;-84
2023/09/24 04:08:48;;;;;;;;;;;10.70;99.90;;;;;;5021727;27;20022;-77
2023/09/24 04:11:15;;;;;;;;;;;10.60;99.90;;;;;;4993623;28;19979;-78
2023/09/24 04:13:41;;;;;;;;;;;10.60;99.90;;;;;;5001450;28;19952;-78
2023/09/24 04:16:16;;;;;;;;;;;10.60;99.90;;;;;;5027012;27;19974;-77
2023/09/24 04:18:41;;;;;;;;;;;10.60;99.90;;;;;;5003648;27;19986;-78
2023/09/24 04:21:15;;;;;;;;;;;10.60;99.90;;;;;;5002181;28;19933;-78
2023/09/24 04:23:41;;;;;;;;;;;10.60;99.90;;;;;;5014432;28;19985;-77
2023/09/24 04:26:08;;;;;;;;;;;10.50;99.90;;;;;;5012224;28;19921;-78
2023/09/24 04:28:35;;;;;;;;;;;10.60;99.90;;;;;;5036815;27;20012;-78
2023/09/24 04:31:01;;;;;;;;;;;10.60;99.90;;;;;;5001588;28;20247;-77
2023/09/24 04:33:27;;;;;;;;;;;10.50;99.90;;;;;;5011955;27;19974;-78
2023/09/24 04:35:53;;;;;;;;;;;10.50;99.90;;;;;;5025559;28;19951;-78
2023/09/24 04:38:18;;;;;;;;;;;10.50;99.90;;;;;;5021063;28;19971;-78
2023/09/24 04:40:44;;;;;;;;;;;10.60;99.90;;;;;;5033456;27;19921;-78
2023/09/24 04:43:14;;;;;;;;;;;10.50;99.90;;;;;;5004521;28;19924;-78
2023/09/24 04:45:40;;;;;;;;;;;10.50;99.90;;;;;;5024505;28;19932;-79
2023/09/24 04:48:06;;;;;;;;;;;10.60;99.90;;;;;;5027427;28;20290;-78
2023/09/24 04:50:32;;;;;;;;;;;10.40;99.90;;;;;;5042344;28;19921;-78
2023/09/24 04:52:58;;;;;;;;;;;10.40;99.90;;;;;;5032576;28;19928;-78
2023/09/24 04:55:24;;;;;;;;;;;10.40;99.90;;;;;;5031055;28;19920;-78
2023/09/24 04:57:53;;;;;;;;;;;10.40;99.90;;;;;;5016642;28;20332;-78
2023/09/24 05:00:22;;;;;;;;;;;10.50;99.90;;;;;;5029994;27;19925;-78
2023/09/24 05:02:47;;;;;;;;;;;10.30;99.90;;;;;;5038144;28;19932;-78
2023/09/24 05:05:16;;;;;;;;;;;10.30;99.90;;;;;;5032050;27;20011;-78
2023/09/24 05:07:42;;;;;;;;;;;10.30;99.90;;;;;;5008187;28;20007;-78
2023/09/24 05:10:09;;;;;;;;;;;10.30;99.90;;;;;;5001572;28;20011;-78
2023/09/24 05:12:35;;;;;;;;;;;10.30;99.90;;;;;;5035400;28;20379;-78
2023/09/24 05:15:01;;;;;;;;;;;10.30;99.90;;;;;;5005289;28;19928;-78
2023/09/24 05:17:27;;;;;;;;;;;10.30;99.90;;;;;;4994547;28;19964;-78
2023/09/24 05:19:54;;;;;;;;;;;10.20;99.90;;;;;;5034392;28;20359;-79
2023/09/24 05:22:21;;;;;;;;;;;10.20;99.90;;;;;;5004104;28;20411;-78
2023/09/24 05:24:47;;;;;;;;;;;10.20;99.90;;;;;;5034873;28;19929;-79
2023/09/24 05:27:12;;;;;;;;;;;10.20;99.90;;;;;;5042826;28;19931;-79
2023/09/24 05:29:41;;;;;;;;;;;10.20;99.90;;;;;;5028082;27;19916;-79
2023/09/24 05:32:06;;;;;;;;;;;10.20;99.90;;;;;;4992039;28;19974;-79
2023/09/24 05:34:32;;;;;;;;;;;10.20;99.90;;;;;;5010559;28;19921;-79
2023/09/24 05:36:58;;;;;;;;;;;10.20;99.90;;;;;;5030386;28;19928;-78
2023/09/24 05:39:23;;;;;;;;;;;10.20;99.90;;;;;;5018884;28;19928;-78
2023/09/24 05:41:49;;;;;;;;;;;10.10;99.90;;;;;;5017133;28;19928;-78
2023/09/24 05:44:16;;;;;;;;;;;10.20;99.90;;;;;;5007397;28;19925;-78
2023/09/24 05:46:41;;;;;;;;;;;10.10;99.90;;;;;;5031215;28;20415;-78
2023/09/24 05:49:10;;;;;;;;;;;10.20;99.90;;;;;;5025632;28;19931;-79
2023/09/24 05:51:36;;;;;;;;;;;10.30;99.90;;;;;;5032227;28;19928;-78
2023/09/24 05:54:02;;;;;;;;;;;10.30;99.90;;;;;;5043118;27;20041;-78
2023/09/24 05:56:28;;;;;;;;;;;10.30;99.90;;;;;;5028420;27;19927;-79
2023/09/24 05:58:56;;;;;;;;;;;10.30;99.90;;;;;;5010205;28;19921;-78
2023/09/24 06:01:25;;;;;;;;;;;10.30;99.90;;;;;;5038738;28;19964;-78
2023/09/24 06:03:51;;;;;;;;;;;10.30;99.90;;;;;;5041294;28;20010;-78
2023/09/24 06:06:17;;;;;;;;;;;10.30;99.90;;;;;;5032727;28;19924;-78
2023/09/24 06:08:43;;;;;;;;;;;10.30;99.90;;;;;;5035812;27;19920;-78
2023/09/24 06:11:22;;;;;;;;;;;10.30;99.90;;;;;;5118341;27;19966;-79
2023/09/24 06:13:48;;;;;;;;;;;10.30;99.90;;;;;;5147127;27;19924;-79
2023/09/24 06:16:13;;;;;;;;;;;10.30;99.90;;;;;;5117195;27;20400;-79
2023/09/24 06:18:39;;;;;;;;;;;10.30;99.90;;;;;;5117717;27;20009;-79
2023/09/24 06:21:12;;;;;;;;;;;10.30;99.90;;;;;;5131369;27;19966;-79
2023/09/24 06:23:40;;;;;;;;;;;10.30;99.90;;;;;;5115085;27;20382;-79
2023/09/24 06:26:06;;;;;;;;;;;10.30;99.90;;;;;;5118598;27;20047;-79
2023/09/24 06:28:32;;;;;;;;;;;10.30;99.90;;;;;;5115496;27;20552;-78
2023/09/24 06:31:03;;;;;;;;;;;10.40;99.90;;;;;;5118682;27;20276;-78
2023/09/24 06:33:29;;;;;;;;;;;10.40;99.90;;;;;;5113145;27;19927;-78
2023/09/24 06:35:55;;;;;;;;;;;10.50;99.90;;;;;;5100336;27;20043;-78
2023/09/24 06:38:20;;;;;;;;;;;10.40;99.90;;;;;;5102467;28;19931;-79
2023/09/24 06:40:54;;;;;;;;;;;10.40;99.90;;;;;;5101464;28;19924;-78
2023/09/24 06:43:20;;;;;;;;;;;10.40;99.90;;;;;;5097794;27;20044;-79
2023/09/24 06:45:46;;;;;;;;;;;10.50;99.90;;;;;;5101171;28;20355;-78
2023/09/24 06:48:12;;;;;;;;;;;10.50;99.90;;;;;;5099990;27;19932;-79
2023/09/24 06:50:37;;;;;;;;;;;10.50;99.90;;;;;;5101481;28;19935;-78
2023/09/24 06:53:03;;;;;;;;;;;10.60;99.90;;;;;;5115838;27;19924;-79
2023/09/24 06:55:29;;;;;;;;;;;10.60;99.90;;;;;;5102364;28;19928;-78
2023/09/24 06:57:55;;;;;;;;;;;10.70;99.90;;;;;;5134155;27;20336;-78
2023/09/24 07:00:20;;;;;;;;;;;10.80;99.90;;;;;;5116611;27;19974;-78
2023/09/24 07:02:50;;;;;;;;;;;10.80;99.90;;;;;;5135642;27;19975;-78
2023/09/24 07:05:16;;;;;;;;;;;10.80;99.90;;;;;;5101752;28;19924;-78
2023/09/24 07:07:41;;;;;;;;;;;10.90;99.90;;;;;;5115582;27;19973;-78
2023/09/24 07:10:07;;;;;;;;;;;11.00;99.90;;;;;;5115571;27;19993;-86
2023/09/24 07:12:33;;;;;;;;;;;11.00;99.90;;;;;;5116539;27;19923;-86
2023/09/24 07:14:59;;;;;;;;;;;11.10;99.90;;;;;;5102904;28;19927;-85
2023/09/24 07:17:25;;;;;;;;;;;11.00;99.90;;;;;;5098275;27;20193;-85
2023/09/24 07:19:51;;;;;;;;;;;11.20;99.90;;;;;;5099075;28;19990;-85
2023/09/24 07:22:21;;;;;;;;;;;11.20;99.90;;;;;;5088518;27;20015;-84
2023/09/24 07:24:46;;;;;;;;;;;11.30;99.90;;;;;;5089398;28;19927;-84
2023/09/24 07:27:12;;;;;;;;;;;11.40;99.90;;;;;;5084408;28;20015;-84
2023/09/24 07:29:39;;;;;;;;;;;11.50;99.90;;;;;;5084493;28;19936;-84
2023/09/24 07:32:05;;;;;;;;;;;11.60;99.90;;;;;;5104479;28;19927;-84
2023/09/24 07:34:31;;;;;;;;;;;11.70;99.90;;;;;;5084267;28;20435;-84
2023/09/24 07:36:56;;;;;;;;;;;11.80;99.90;;;;;;5086865;28;19924;-83
2023/09/24 07:39:22;;;;;;;;;;;11.90;99.90;;;;;;5088732;28;19928;-83
2023/09/24 07:41:49;;;;;;;;;;;12.10;99.90;;;;;;5103123;28;20011;-83
2023/09/24 07:44:15;;;;;;;;;;;12.20;99.90;;;;;;5085043;28;19927;-82
2023/09/24 07:46:41;;;;;;;;;;;12.30;99.90;;;;;;5101996;28;19934;-83
2023/09/24 07:49:07;;;;;;;;;;;12.50;99.90;;;;;;5086801;28;20611;-81
2023/09/24 07:51:32;;;;;;;;;;;12.70;99.90;;;;;;5099562;28;20312;-81
2023/09/24 07:53:58;;;;;;;;;;;12.80;99.90;;;;;;5118150;27;20642;-81
2023/09/24 07:56:23;;;;;;;;;;;12.90;99.90;;;;;;5102428;27;20184;-81
2023/09/24 07:58:52;;;;;;;;;;;13.20;99.90;;;;;;5087511;28;20018;-80
2023/09/24 08:01:22;;;;;;;;;;;13.30;99.90;;;;;;5085079;28;20373;-81
2023/09/24 08:03:49;;;;;;;;;;;13.50;99.90;;;;;;5084392;28;20374;-80
2023/09/24 08:06:14;;;;;;;;;;;13.70;99.90;;;;;;5083619;28;19928;-81
2023/09/24 08:08:40;;;;;;;;;;;13.80;99.90;;;;;;5101855;27;19924;-81
2023/09/24 08:11:06;;;;;;;;;;;14.00;99.90;;;;;;5103177;28;20358;-80
2023/09/24 08:13:31;;;;;;;;;;;14.10;99.90;;;;;;5085368;28;19927;-80
2023/09/24 08:15:57;;;;;;;;;;;14.20;99.90;;;;;;5120065;27;19928;-81
2023/09/24 08:18:23;;;;;;;;;;;14.30;99.90;;;;;;5102337;28;19968;-80
2023/09/24 08:20:49;;;;;;;;;;;14.50;99.90;;;;;;5102184;28;20035;-80
2023/09/24 08:23:15;;;;;;;;;;;14.60;99.90;;;;;;5098179;28;19923;-82
2023/09/24 08:25:41;;;;;;;;;;;14.70;99.90;;;;;;5100247;28;19938;-81
2023/09/24 08:28:07;;;;;;;;;;;14.80;99.90;;;;;;5103303;28;19923;-80
2023/09/24 08:30:33;;;;;;;;;;;14.90;99.90;;;;;;5094359;28;19924;-81
2023/09/24 08:32:59;;;;;;;;;;;15.00;99.90;;;;;;5096158;27;20395;-81
2023/09/24 08:35:24;;;;;;;;;;;15.00;99.90;;;;;;5076856;28;19938;-81
2023/09/24 08:37:50;;;;;;;;;;;15.10;99.90;;;;;;5080250;28;19951;-83
2023/09/24 08:40:16;;;;;;;;;;;15.20;99.90;;;;;;5097580;28;19924;-81
2023/09/24 08:42:46;;;;;;;;;;;15.30;99.90;;;;;;5080648;28;19924;-82
2023/09/24 08:45:13;;;;;;;;;;;15.30;99.90;;;;;;5124995;27;19981;-81
2023/09/24 08:47:42;;;;;;;;;;;15.50;99.90;;;;;;5122359;27;19928;-81
2023/09/24 08:50:11;;;;;;;;;;;15.60;99.90;;;;;;5116856;27;19934;-81
2023/09/24 08:52:38;;;;;;;;;;;15.70;99.90;;;;;;5124142;27;20014;-82
2023/09/24 08:55:05;;;;;;;;;;;15.70;99.90;;;;;;5104665;27;19935;-82
2023/09/24 08:57:35;;;;;;;;;;;15.80;99.90;;;;;;5081518;28;19928;-82
2023/09/24 09:00:06;;;;;;;;;;;15.80;99.90;;;;;;5135141;27;20379;-81
2023/09/24 09:02:32;;;;;;;;;;;15.80;99.90;;;;;;5098821;28;19931;-81
2023/09/24 09:04:57;;;;;;;;;;;15.90;99.90;;;;;;5084435;28;19924;-81
2023/09/24 09:07:23;;;;;;;;;;;15.90;99.90;;;;;;5080020;28;19924;-81
2023/09/24 09:09:56;;;;;;;;;;;16.00;99.90;;;;;;5083250;28;19924;-81
2023/09/24 09:12:22;;;;;;;;;;;16.20;99.90;;;;;;5125833;27;19928;-81
2023/09/24 09:14:49;;;;;;;;;;;16.30;99.90;;;;;;5097572;28;19973;-81
2023/09/24 09:17:15;;;;;;;;;;;16.40;99.90;;;;;;5081180;28;19924;-81
2023/09/24 09:19:48;;;;;;;;;;;16.40;99.90;;;;;;5113913;27;19949;-81
2023/09/24 09:22:17;;;;;;;;;;;16.40;99.90;;;;;;5098229;27;20378;-81
2023/09/24 09:24:43;;;;;;;;;;;16.50;99.90;;;;;;5087273;28;19924;-81
2023/09/24 09:27:09;;;;;;;;;;;16.50;99.90;;;;;;5083491;28;20476;-80
2023/09/24 09:29:35;;;;;;;;;;;16.60;99.90;;;;;;5082436;28;19959;-80
2023/09/24 09:32:00;;;;;;;;;;;16.60;99.90;;;;;;5081931;28;19924;-81
2023/09/24 09:34:30;;;;;;;;;;;16.70;99.90;;;;;;5098822;27;19924;-80
2023/09/24 09:37:17;;;;;;;;;;;16.80;99.90;;;;;;5077832;28;20282;-80
2023/09/24 09:39:44;;;;;;;;;;;16.90;99.90;;;;;;5123371;27;19924;-80
2023/09/24 09:42:10;;;;;;;;;;;16.90;99.90;;;;;;5075644;28;20440;-80
2023/09/24 09:44:36;;;;;;;;;;;16.90;99.90;;;;;;5111160;27;19980;-80
2023/09/24 09:47:04;;;;;;;;;;;16.90;99.90;;;;;;5080344;28;19924;-80
2023/09/24 09:49:33;;;;;;;;;;;17.00;99.90;;;;;;5085227;28;20428;-80
2023/09/24 09:52:00;;;;;;;;;;;17.00;99.90;;;;;;5086541;28;20031;-80
2023/09/24 09:54:30;;;;;;;;;;;17.10;99.90;;;;;;5103406;27;19998;-80
2023/09/24 09:56:56;;;;;;;;;;;17.20;99.90;;;;;;5086474;28;19947;-79
2023/09/24 09:59:26;;;;;;;;;;;17.20;99.90;;;;;;5073448;28;20207;-80
2023/09/24 10:01:52;;;;;;;;;;;17.30;99.90;;;;;;5122780;27;19928;-80
2023/09/24 10:04:17;;;;;;;;;;;17.20;99.90;;;;;;5119847;27;20336;-79
2023/09/24 10:06:43;;;;;;;;;;;17.20;99.90;;;;;;5086494;28;20499;-79
2023/09/24 10:09:34;;;;;;;;;;;17.20;99.90;;;;;;5072402;28;19924;-80
2023/09/24 10:12:06;;;;;;;;;;;17.20;99.90;;;;;;5095911;28;19938;-79
2023/09/24 10:14:39;;;;;;;;;;;17.20;99.90;;;;;;5084087;28;19934;-79
2023/09/24 10:17:17;;;;;;;;;;;17.20;99.90;;;;;;5075996;28;19946;-80
2023/09/24 10:19:49;;;;;;;;;;;17.20;99.90;;;;;;5069759;28;20447;-79
2023/09/24 10:22:28;;;;;;;;;;;17.20;99.90;;;;;;5079962;28;20306;-78
2023/09/24 10:24:54;;;;;;;;;;;17.30;99.90;;;;;;5082472;28;19939;-79
2023/09/24 10:27:23;;;;;;;;;;;17.40;99.90;;;;;;5089573;28;19924;-80
2023/09/24 10:29:53;;;;;;;;;;;17.50;99.90;;;;;;5076194;28;20344;-80
2023/09/24 10:32:23;;;;;;;;;;;17.60;99.90;;;;;;5089096;28;19951;-79
2023/09/24 10:34:52;;;;;;;;;;;17.70;99.90;;;;;;5085745;28;20283;-79
2023/09/24 10:37:24;;;;;;;;;;;17.70;99.90;;;;;;5074728;28;19932;-73
2023/09/24 10:39:59;;;;;;;;;;;17.80;99.90;;;;;;5093081;28;19924;-74
2023/09/24 10:42:25;;;;;;;;;;;17.90;99.90;;;;;;5073924;28;19977;-73
2023/09/24 10:45:06;;;;;;;;;;;17.90;99.90;;;;;;5102848;27;20386;-74
2023/09/24 10:47:37;;;;;;;;;;;18.00;99.90;;;;;;5084155;28;19928;-74
2023/09/24 10:50:06;;;;;;;;;;;18.10;99.90;;;;;;5122878;27;19924;-74
2023/09/24 10:52:47;;;;;;;;;;;18.20;99.90;;;;;;5091229;28;19981;-74
2023/09/24 10:55:13;;;;;;;;;;;18.30;99.90;;;;;;5072227;28;19928;-75
2023/09/24 10:57:38;;;;;;;;;;;18.30;99.90;;;;;;5079567;28;19931;-74
2023/09/24 11:00:12;;;;;;;;;;;18.30;99.90;;;;;;5090757;27;20555;-74
2023/09/24 11:02:38;;;;;;;;;;;18.30;99.90;;;;;;5137388;27;19967;-75
2023/09/24 11:05:04;;;;;;;;;;;18.50;99.90;;;;;;5097409;28;19971;-75
2023/09/24 11:07:30;;;;;;;;;;;18.50;99.90;;;;;;5081110;28;19924;-75
2023/09/24 11:09:56;;;;;;;;;;;18.50;99.90;;;;;;5133568;27;19932;-74
2023/09/24 11:12:22;;;;;;;;;;;18.60;99.90;;;;;;5090634;28;19923;-74
2023/09/24 11:14:54;;;;;;;;;;;18.70;99.90;;;;;;5092223;28;19970;-74
2023/09/24 11:17:20;;;;;;;;;;;18.70;99.90;;;;;;5121950;27;20366;-75
2023/09/24 11:19:46;;;;;;;;;;;18.70;99.90;;;;;;5082941;28;20374;-75
2023/09/24 11:22:18;;;;;;;;;;;18.80;99.90;;;;;;5077701;28;20354;-74
2023/09/24 11:24:45;;;;;;;;;;;18.80;99.90;;;;;;5105492;27;19932;-79
2023/09/24 11:27:10;;;;;;;;;;;18.90;99.90;;;;;;5099002;28;19924;-78
2023/09/24 11:29:36;;;;;;;;;;;19.00;99.90;;;;;;5110023;27;19925;-80
2023/09/24 11:32:02;;;;;;;;;;;19.00;99.90;;;;;;5100558;27;19924;-79
2023/09/24 11:34:29;;;;;;;;;;;19.00;99.90;;;;;;5110912;27;19935;-79
2023/09/24 11:36:58;;;;;;;;;;;19.00;99.90;;;;;;5094839;28;19931;-78
2023/09/24 11:39:26;;;;;;;;;;;19.00;99.90;;;;;;5076574;28;19924;-78
2023/09/24 11:41:52;;;;;;;;;;;19.00;99.90;;;;;;5095454;28;19977;-79
2023/09/24 11:44:18;;;;;;;;;;;19.00;99.90;;;;;;5082848;28;19931;-78
2023/09/24 11:46:44;;;;;;;;;;;19.00;99.90;;;;;;5092602;28;20018;-79
2023/09/24 11:49:09;;;;;;;;;;;19.00;99.90;;;;;;5095817;28;19968;-78
2023/09/24 11:51:36;;;;;;;;;;;19.00;99.90;;;;;;5107411;27;19994;-78
2023/09/24 11:54:02;;;;;;;;;;;19.00;99.90;;;;;;5107547;27;19924;-79
2023/09/24 11:56:28;;;;;;;;;;;19.10;99.90;;;;;;5107074;27;19932;-78
2023/09/24 11:58:55;;;;;;;;;;;19.10;99.90;;;;;;5075390;28;19939;-79
2023/09/24 12:01:20;;;;;;;;;;;19.10;99.90;;;;;;5083911;28;19928;-79
2023/09/24 12:03:47;;;;;;;;;;;19.10;99.90;;;;;;5091593;27;20018;-78
2023/09/24 12:06:13;;;;;;;;;;;19.10;99.90;;;;;;5084166;28;20274;-73
2023/09/24 12:08:39;;;;;;;;;;;19.10;99.90;;;;;;5086799;28;19924;-75
2023/09/24 12:11:04;;;;;;;;;;;19.10;99.90;;;;;;5100695;28;19932;-75
2023/09/24 12:13:31;;;;;;;;;;;19.10;99.90;;;;;;5098387;27;19942;-75
2023/09/24 12:15:56;;;;;;;;;;;19.00;99.90;;;;;;5103724;28;19924;-75
2023/09/24 12:18:22;;;;;;;;;;;19.00;99.90;;;;;;5100489;27;20021;-75
2023/09/24 12:20:47;;;;;;;;;;;18.90;99.90;;;;;;5135960;27;19928;-75
2023/09/24 12:23:13;;;;;;;;;;;18.90;99.90;;;;;;5085996;28;20010;-74
2023/09/24 12:25:40;;;;;;;;;;;18.80;99.90;;;;;;5090298;27;19951;-76
2023/09/24 12:28:07;;;;;;;;;;;18.80;99.90;;;;;;5100494;28;19928;-75
2023/09/24 12:30:33;;;;;;;;;;;18.70;99.90;;;;;;5086634;28;19924;-76
2023/09/24 12:32:59;;;;;;;;;;;18.70;99.90;;;;;;5102418;28;20671;-81
2023/09/24 12:35:24;;;;;;;;;;;18.60;99.90;;;;;;5101590;28;19923;-81
2023/09/24 12:37:54;;;;;;;;;;;18.60;99.90;;;;;;5082352;28;20081;-80
2023/09/24 12:40:19;;;;;;;;;;;18.60;99.90;;;;;;5098525;28;20327;-80
2023/09/24 12:42:45;;;;;;;;;;;18.50;99.90;;;;;;5085763;28;19941;-80
2023/09/24 12:45:11;;;;;;;;;;;18.60;99.90;;;;;;5083642;28;19924;-80
2023/09/24 12:47:37;;;;;;;;;;;18.70;99.90;;;;;;5104572;27;19970;-80
2023/09/24 12:50:07;;;;;;;;;;;18.70;99.90;;;;;;5098892;28;19935;-81
2023/09/24 12:52:34;;;;;;;;;;;18.80;99.90;;;;;;5099042;28;19967;-80
2023/09/24 12:55:00;;;;;;;;;;;18.80;99.90;;;;;;5095404;28;19928;-80
2023/09/24 12:57:25;;;;;;;;;;;18.90;99.90;;;;;;5114066;27;19934;-80
2023/09/24 12:59:51;;;;;;;;;;;19.00;99.90;;;;;;5118028;27;19923;-81
2023/09/24 13:02:17;;;;;;;;;;;19.00;99.90;;;;;;5096071;28;19981;-80
2023/09/24 13:04:43;;;;;;;;;;;18.90;99.90;;;;;;5099102;28;19931;-80
2023/09/24 13:07:09;;;;;;;;;;;18.90;99.90;;;;;;5102264;28;20302;-80
2023/09/24 13:09:35;;;;;;;;;;;18.90;99.90;;;;;;5100595;28;19924;-80
2023/09/24 13:12:01;;;;;;;;;;;18.90;99.90;;;;;;5083523;28;19936;-80
2023/09/24 13:14:27;;;;;;;;;;;18.90;99.90;;;;;;5087072;28;19930;-80
2023/09/24 13:16:52;;;;;;;;;;;18.90;99.90;;;;;;5094319;28;20290;-80
2023/09/24 13:19:18;;;;;;;;;;;18.80;99.90;;;;;;5122883;27;19932;-80
2023/09/24 13:21:44;;;;;;;;;;;18.70;99.90;;;;;;5101623;28;19923;-80
2023/09/24 13:24:10;;;;;;;;;;;18.70;99.90;;;;;;5103213;28;19931;-80
2023/09/24 13:26:36;;;;;;;;;;;18.70;99.90;;;;;;5083580;28;19932;-80
2023/09/24 13:29:02;;;;;;;;;;;18.70;99.90;;;;;;5087087;28;20390;-80
2023/09/24 13:31:28;;;;;;;;;;;18.60;99.90;;;;;;5082175;28;19940;-80
2023/09/24 13:33:54;;;;;;;;;;;18.60;99.90;;;;;;5087623;28;20013;-80
2023/09/24 13:36:21;;;;;;;;;;;18.60;99.90;;;;;;5098993;28;20042;-80
2023/09/24 13:38:46;;;;;;;;;;;18.70;99.90;;;;;;5085432;28;20294;-75
2023/09/24 13:41:12;;;;;;;;;;;18.80;99.90;;;;;;5081906;28;19935;-75
2023/09/24 13:43:38;;;;;;;;;;;18.90;99.90;;;;;;5117585;27;19928;-75
2023/09/24 13:46:04;;;;;;;;;;;18.90;99.90;;;;;;5086177;28;19928;-76
2023/09/24 13:48:30;;;;;;;;;;;18.90;99.90;;;;;;5095754;28;19924;-75
2023/09/24 13:50:55;;;;;;;;;;;19.00;99.90;;;;;;5117509;27;19976;-75
2023/09/24 13:53:21;;;;;;;;;;;19.00;99.90;;;;;;5084189;28;19923;-76
2023/09/24 13:55:47;;;;;;;;;;;19.00;99.90;;;;;;5102918;28;19924;-75
2023/09/24 13:58:13;;;;;;;;;;;19.00;99.90;;;;;;5083368;28;19945;-75
2023/09/24 14:00:39;;;;;;;;;;;19.00;99.90;;;;;;5096791;28;20006;-75
2023/09/24 14:03:04;;;;;;;;;;;19.00;99.90;;;;;;5083946;28;19928;-75
2023/09/24 14:05:30;;;;;;;;;;;19.00;99.90;;;;;;5097140;28;19935;-76
2023/09/24 14:13:25;;;;;;;;;;;19.00;99.90;;;;;;5099008;28;19935;-76
2023/09/24 14:15:51;;;;;;;;;;;19.00;99.90;;;;;;5102488;28;19924;-81
2023/09/24 14:18:16;;;;;;;;;;;19.10;99.90;;;;;;5083633;28;19923;-81
2023/09/24 14:20:43;;;;;;;;;;;19.10;99.90;;;;;;5097133;28;20370;-81